Bei Facebook empfehlenBei Twitter postenGoogle plusPinterest

Das Wetter im Erzgebirge am 18.10.2016

Wetter und Klima am 18.10.2016 Holzhau im Erzgebirge (630m ü.NN)
Letzte gemessene Temperatur und Uhrzeit der Messung23:45:00 Uhr6.30 °C
Temperatur (Maximum / Höchstwert) und Uhrzeit der Messung17:15:00 Uhr11.30 °C
Temperatur (Minimum / Tiefstwert) und Uhrzeit der Messung23:00:006.00 °C
Errechneter Absolutwert der Temperaturschwankungen zwischen Tmin und Tmax des Tages5.30 K
Errechnete Tagesmitteltemperatur8.36042 °C
Gesamt - Niederschlag des Tages (in flüssiger Form)0.00 Liter / m²
Luftdruck (Maximum / Höchstwert) und Zeitpunkt der Messung00:30:00 Uhr1018.60 hPa
Luftdruck (Minimum / Tiefstwert) und Zeitpunkt der Messung23:45:00 Uhr1015.20 hPa
Errechneter Absolutwert der Luftdruckschwankungen des Tages3.40 hPa
Höchste gemessene Windgeschwindigkeit und Uhrzeit der Messung23:45:00 Uhr0.00 km/h
Errechnete Windhäufigkeit in Relation zu den Messwerten des Tages0.00000 %
Niedrigste Windkühle (Windchill) und Zeitpunkt der Messung23:00:00 Uhr6.00 °C
Taupunkt (Maximum / Höchstwert) und Uhrzeit der Messung15:45:00 Uhr10.50 °C
Taupunkt (Minimum / Tiefstwert) und Uhrzeit der Messung23:00:005.30 °C
Anzahl der automatisch eingelesenen Messwerte 96

Detaillierte Wetter- und Klima- Messwerte für den 18.10.2016 in Holzhau im Erzgebirge (630m ü.NN)
ZeitTemperaturLuftdruckRel. LuftfeuchteWindWindrichtungWindchillTaupunktNiederschlag l/m²
23:45:006.30 °C1015.20 hPa95.00 %5.60 °C 
23:30:006.10 °C1015.30 hPa95.00 %5.40 °C 
23:15:006.10 °C1015.30 hPa95.00 %5.40 °C 
23:00:006.00 °C1015.50 hPa95.00 %5.30 °C 
22:45:006.10 °C1015.70 hPa95.00 %5.40 °C 
22:30:006.30 °C1015.70 hPa95.00 %5.60 °C 
22:15:006.40 °C1015.70 hPa95.00 %5.70 °C 
22:00:006.60 °C1015.70 hPa95.00 %5.90 °C 
21:45:006.90 °C1015.80 hPa94.00 %6.00 °C 
21:30:007.20 °C1015.70 hPa94.00 %6.30 °C 
21:15:007.30 °C1015.80 hPa94.00 %6.40 °C 
21:00:007.30 °C1015.90 hPa94.00 %6.40 °C 
20:45:007.50 °C1016.00 hPa94.00 %6.60 °C 
20:30:007.70 °C1015.90 hPa95.00 %7.00 °C 
20:15:007.80 °C1016.00 hPa95.00 %7.10 °C 
20:00:007.70 °C1016.00 hPa94.00 %6.80 °C 
19:45:007.60 °C1016.10 hPa94.00 %6.70 °C 
19:30:007.50 °C1016.10 hPa94.00 %6.60 °C 
19:15:007.40 °C1016.00 hPa94.00 %6.50 °C 
19:00:007.50 °C1016.10 hPa93.00 %6.40 °C 
18:45:007.70 °C1016.10 hPa93.00 %6.60 °C 
18:30:008.40 °C1016.00 hPa93.00 %7.30 °C 
18:15:009.30 °C1016.00 hPa94.00 %8.40 °C 
18:00:0010.10 °C1016.10 hPa94.00 %9.20 °C 
17:45:0010.50 °C1016.00 hPa94.00 %9.60 °C 
17:30:0010.90 °C1016.00 hPa94.00 %10.00 °C 
17:15:0011.30 °C1016.10 hPa94.00 %10.40 °C 
17:00:0011.20 °C1016.10 hPa94.00 %10.30 °C 
16:45:0010.80 °C1016.00 hPa94.00 %9.90 °C 
16:30:0010.40 °C1016.30 hPa94.00 %9.50 °C 
16:15:0010.80 °C1016.20 hPa94.00 %9.90 °C 
16:00:0011.10 °C1016.50 hPa94.00 %10.20 °C 
15:45:0011.30 °C1016.80 hPa95.00 %10.50 °C 
15:30:0011.30 °C1016.80 hPa95.00 %10.50 °C 
15:15:0011.10 °C1016.80 hPa95.00 %10.30 °C 
15:00:0010.90 °C1016.70 hPa95.00 %10.10 °C 
14:45:0010.80 °C1016.80 hPa95.00 %10.00 °C 
14:30:0010.90 °C1016.80 hPa95.00 %10.10 °C 
14:15:0010.60 °C1017.00 hPa95.00 %9.80 °C 
14:00:0010.40 °C1016.90 hPa95.00 %9.60 °C 
13:45:0010.40 °C1016.90 hPa95.00 %9.60 °C 
13:30:0010.40 °C1016.90 hPa95.00 %9.60 °C 
13:15:0010.20 °C1017.00 hPa95.00 %9.40 °C 
13:00:0010.10 °C1017.00 hPa95.00 %9.30 °C 
12:45:0010.10 °C1017.20 hPa95.00 %9.30 °C 
12:30:0010.40 °C1017.20 hPa95.00 %9.60 °C 
12:15:0010.60 °C1017.30 hPa95.00 %9.80 °C 
12:00:0010.50 °C1017.10 hPa95.00 %9.70 °C 
11:45:0010.70 °C1017.10 hPa95.00 %9.90 °C 
11:30:0010.90 °C1017.20 hPa95.00 %10.10 °C 
11:15:0010.60 °C1017.40 hPa95.00 %9.80 °C 
11:00:0010.40 °C1017.30 hPa95.00 %9.60 °C 
10:45:009.80 °C1017.30 hPa95.00 %9.00 °C 
10:30:009.40 °C1017.20 hPa95.00 %8.60 °C 
10:15:009.30 °C1017.30 hPa95.00 %8.50 °C 
10:00:009.00 °C1017.10 hPa95.00 %8.20 °C 
09:45:008.80 °C1017.00 hPa95.00 %8.00 °C 
09:30:008.60 °C1017.00 hPa95.00 %7.80 °C 
09:15:008.40 °C1017.20 hPa95.00 %7.60 °C 
09:00:008.30 °C1017.10 hPa95.00 %7.50 °C 
08:45:008.20 °C1017.00 hPa95.00 %7.40 °C 
08:30:008.10 °C1016.90 hPa95.00 %7.30 °C 
08:15:007.90 °C1016.90 hPa95.00 %7.10 °C 
08:00:007.90 °C1016.80 hPa95.00 %7.10 °C 
07:45:007.80 °C1016.80 hPa95.00 %7.10 °C 
07:30:007.80 °C1016.70 hPa95.00 %7.10 °C 
07:15:007.80 °C1016.80 hPa95.00 %7.10 °C 
07:00:007.80 °C1016.80 hPa95.00 %7.10 °C 
06:45:007.60 °C1016.80 hPa95.00 %6.90 °C 
06:30:007.60 °C1017.00 hPa94.00 %6.70 °C 
06:15:007.50 °C1017.00 hPa94.00 %6.60 °C 
06:00:007.50 °C1017.10 hPa94.00 %6.60 °C 
05:45:007.50 °C1017.10 hPa94.00 %6.60 °C 
05:30:007.40 °C1017.10 hPa94.00 %6.50 °C 
05:15:007.40 °C1017.10 hPa94.00 %6.50 °C 
05:00:007.30 °C1017.40 hPa94.00 %6.40 °C 
04:45:007.30 °C1017.50 hPa94.00 %6.40 °C 
04:30:007.20 °C1017.50 hPa94.00 %6.30 °C 
04:15:007.20 °C1017.40 hPa94.00 %6.30 °C 
04:00:007.20 °C1017.50 hPa94.00 %6.30 °C 
03:45:007.10 °C1017.60 hPa94.00 %6.20 °C 
03:30:006.90 °C1017.50 hPa94.00 %6.00 °C 
03:15:006.80 °C1017.50 hPa94.00 %5.90 °C 
03:00:006.60 °C1017.50 hPa94.00 %5.70 °C 
02:45:006.40 °C1017.70 hPa94.00 %5.50 °C 
02:30:006.40 °C1017.80 hPa94.00 %5.50 °C 
02:15:006.30 °C1017.70 hPa94.00 %5.40 °C 
02:00:006.30 °C1017.80 hPa93.00 %5.30 °C 
01:45:006.40 °C1018.00 hPa94.00 %5.50 °C 
01:30:006.50 °C1018.10 hPa94.00 %5.60 °C 
01:15:006.50 °C1018.30 hPa94.00 %5.60 °C 
01:00:006.50 °C1018.30 hPa94.00 %5.60 °C 
00:45:006.60 °C1018.50 hPa94.00 %5.70 °C 
00:30:006.50 °C1018.60 hPa94.00 %5.60 °C 
00:15:006.40 °C1018.60 hPa94.00 %5.50 °C 
00:00:006.40 °C1018.60 hPa93.00 %5.40 °C 

Permanenter Link zu dieser Seite: Wetter im Erzgebirge am 18.10.2016
Performance-Info: Die Erstellung der Seite / Statistik(en) / Tabelle(n) erforderte 5 Datenbankserver-Abfrage(n) und dauerte 105 Millisekunden. (Dieser Messwert ist von der Gesamt-Auslastung des Servers abhängig.)
Erzgebirge - Wetter | Erzgebirge - Wetter (Mobilgeräte) | Komplette Klimadatenbank